Aviation Digital Data Service (ADDS)

Output produced by METARs form (0222 UTC 18 December 2014)
found at http://aviationweather.gov/adds/metars/
 
KBDR 172341Z 1800/1824 29010KT P6SM BKN050 
     FM180700 29012G20KT P6SM SCT040 
     TEMPO 1807/1811 BKN040 
     FM181400 30016G24KT P6SM SCT035 
     FM182200 31010KT P6SM SCT035